Time;durP1;ratioP1;P1;durP2;ratioP2;P2;SDS_P1;SDS_P2;PMS_P1;PMS_P2;Temp;Humidity;BMP_temperature;BMP_pressure;BME280_temperature;BME280_humidity;BME280_pressure;Samples;Min_cycle;Max_cycle;Signal;HPM_P1;HPM_P2
2022/07/02 00:00:59;;;;;;;6.18;3.50;;;;;;;25.30;50.70;99649.91;4497708;31;34179;-61
2022/07/02 00:03:32;;;;;;;10.23;3.97;;;;;;;25.48;50.06;99656.59;4497260;31;33528;-58
2022/07/02 00:06:01;;;;;;;6.57;3.55;;;;;;;24.82;52.41;99663.78;4495494;31;34165;-59
2022/07/02 00:08:31;;;;;;;7.15;3.72;;;;;;;24.61;52.78;99669.41;4490752;31;34013;-59
2022/07/02 00:11:00;;;;;;;7.30;3.75;;;;;;;24.80;52.37;99668.59;4495305;31;33381;-59
2022/07/02 00:13:28;;;;;;;8.45;4.15;;;;;;;25.56;50.26;99668.19;4484182;31;33525;-60
2022/07/02 00:15:55;;;;;;;7.57;3.25;;;;;;;24.94;52.03;99674.09;4495660;31;33963;-60
2022/07/02 00:18:23;;;;;;;6.70;3.72;;;;;;;25.43;50.73;99667.38;4497237;31;33258;-59
2022/07/02 00:20:51;;;;;;;6.82;3.12;;;;;;;25.40;50.67;99670.53;4495471;31;33630;-59
2022/07/02 00:23:18;;;;;;;6.78;3.20;;;;;;;25.25;51.17;99649.69;4496930;31;31913;-59
2022/07/02 00:25:56;;;;;;;5.75;3.53;;;;;;;25.61;50.08;99653.00;4496400;31;33847;-58
2022/07/02 00:28:26;;;;;;;6.75;3.47;;;;;;;25.43;50.95;99651.78;4494614;31;33860;-59
2022/07/02 00:30:53;;;;;;;6.57;3.37;;;;;;;25.46;50.53;99656.00;4483937;31;33342;-60
2022/07/02 00:33:24;;;;;;;7.85;3.58;;;;;;;25.50;50.16;99668.19;4497196;31;35013;-59
2022/07/02 00:35:52;;;;;;;4.87;2.72;;;;;;;25.89;49.52;99670.03;4494509;31;34967;-58
2022/07/02 00:38:19;;;;;;;5.75;3.35;;;;;;;25.97;49.32;99679.91;4492951;31;34400;-61
2022/07/02 00:40:47;;;;;;;4.62;3.10;;;;;;;26.20;48.42;99693.12;4487949;31;34255;-61
2022/07/02 00:43:15;;;;;;;8.15;3.20;;;;;;;26.34;48.50;99677.44;4488836;31;34020;-58
2022/07/02 00:45:43;;;;;;;5.85;3.30;;;;;;;26.15;48.11;99669.06;4482729;31;34071;-60
2022/07/02 00:48:13;;;;;;;6.03;3.60;;;;;;;25.90;49.21;99670.84;4487182;31;35002;-58
2022/07/02 00:50:41;;;;;;;7.95;3.42;;;;;;;25.79;49.37;99677.81;4496580;31;34034;-59
2022/07/02 00:53:08;;;;;;;6.95;3.22;;;;;;;26.28;47.61;99681.87;4495444;31;34995;-60
2022/07/02 00:55:36;;;;;;;4.57;2.50;;;;;;;25.73;49.15;99676.78;4483263;31;34245;-61
2022/07/02 00:58:04;;;;;;;5.47;3.25;;;;;;;25.89;48.82;99669.19;4497187;31;34016;-59
2022/07/02 01:00:31;;;;;;;4.97;2.62;;;;;;;25.87;49.42;99657.56;4496985;31;33133;-58
2022/07/02 01:02:59;;;;;;;6.18;3.15;;;;;;;25.83;49.64;99662.66;4497839;31;35191;-60
2022/07/02 01:05:27;;;;;;;6.03;3.08;;;;;;;26.25;47.95;99655.72;4493081;31;34182;-61
2022/07/02 01:10:48;;;;;;;5.40;3.12;;;;;;;26.27;47.61;99679.38;4493719;31;34305;-59
2022/07/02 01:13:17;;;;;;;5.28;3.03;;;;;;;25.48;48.54;99684.00;4497196;31;33733;-59
2022/07/02 01:15:45;;;;;;;5.32;2.78;;;;;;;25.19;49.97;99683.41;4481136;31;35457;-56
2022/07/02 01:18:17;;;;;;;6.25;2.90;;;;;;;25.26;49.39;99673.28;4489722;31;33712;-56
2022/07/02 01:20:46;;;;;;;4.03;2.40;;;;;;;25.83;47.73;99667.31;4489390;31;33294;-58
2022/07/02 01:23:13;;;;;;;6.45;2.47;;;;;;;25.42;48.74;99661.03;4495704;31;34606;-56
2022/07/02 01:25:41;;;;;;;5.50;2.30;;;;;;;24.91;50.43;99666.28;4485043;31;33916;-56
2022/07/02 01:28:08;;;;;;;4.25;2.00;;;;;;;24.92;50.57;99677.06;4472390;31;34801;-56
2022/07/02 01:30:36;;;;;;;3.85;1.42;;;;;;;24.90;49.95;99702.94;4486400;31;34487;-58
2022/07/02 01:33:03;;;;;;;3.97;1.70;;;;;;;23.96;52.79;99704.53;4486074;31;32557;-60
2022/07/02 01:35:31;;;;;;;7.25;1.70;;;;;;;23.61;52.75;99711.84;4487481;31;35609;-58
2022/07/02 01:37:59;;;;;;;3.50;1.87;;;;;;;23.87;51.99;99725.69;4485519;31;32406;-56
2022/07/02 01:40:27;;;;;;;6.22;1.60;;;;;;;23.68;51.84;99723.66;4495933;31;33375;-55
2022/07/02 01:42:55;;;;;;;3.67;1.42;;;;;;;22.99;53.67;99740.75;4495767;31;33860;-59
2022/07/02 01:45:23;;;;;;;5.40;2.08;;;;;;;22.68;54.14;99746.47;4494249;31;35008;-56
2022/07/02 01:47:50;;;;;;;3.05;1.42;;;;;;;22.73;55.24;99741.31;4498523;31;34938;-56
2022/07/02 01:50:18;;;;;;;4.78;1.60;;;;;;;22.97;53.51;99723.72;4495421;31;33505;-59
2022/07/02 01:52:56;;;;;;;3.25;1.48;;;;;;;22.82;55.37;99728.34;4496419;31;35051;-55
2022/07/02 01:55:24;;;;;;;4.75;1.70;;;;;;;23.00;54.31;99736.97;4499582;31;34145;-54
2022/07/02 01:57:52;;;;;;;4.37;1.33;;;;;;;23.54;53.20;99721.88;4498913;31;33876;-57
2022/07/02 02:00:19;;;;;;;4.25;1.60;;;;;;;22.94;52.55;99722.22;4498372;31;33333;-56
2022/07/02 02:02:47;;;;;;;7.28;1.80;;;;;;;23.40;51.40;99702.69;4494656;31;33824;-59
2022/07/02 02:05:15;;;;;;;2.97;1.27;;;;;;;22.62;54.03;99679.06;4500612;31;33728;-57
2022/07/02 02:07:42;;;;;;;2.33;1.40;;;;;;;22.97;52.67;99645.41;4491155;31;34054;-56
2022/07/02 02:10:10;;;;;;;4.20;1.30;;;;;;;22.81;53.30;99626.56;4489437;31;31987;-55
2022/07/02 02:12:38;;;;;;;2.90;1.35;;;;;;;22.33;54.37;99612.69;4487970;31;32199;-56
2022/07/02 02:15:05;;;;;;;2.97;1.27;;;;;;;22.39;54.18;99606.47;4483745;31;32537;-57
2022/07/02 02:17:33;;;;;;;2.62;1.20;;;;;;;23.07;53.42;99604.13;4490806;31;33973;-57
2022/07/02 02:20:01;;;;;;;5.68;1.75;;;;;;;23.19;52.59;99610.72;4500454;31;34625;-57
2022/07/02 02:22:28;;;;;;;3.15;1.45;;;;;;;23.07;53.32;99622.41;4498969;31;34960;-58
2022/07/02 02:24:56;;;;;;;3.37;1.30;;;;;;;23.27;52.62;99625.25;4500349;31;34107;-58
2022/07/02 02:27:24;;;;;;;5.30;1.45;;;;;;;22.66;53.73;99602.09;4499731;31;34761;-57
2022/07/02 02:29:51;;;;;;;3.15;1.60;;;;;;;22.64;53.94;99587.81;4492977;31;34406;-58
2022/07/02 02:32:19;;;;;;;5.25;1.83;;;;;;;23.02;53.21;99588.34;4490450;31;33861;-57
2022/07/02 02:34:46;;;;;;;3.55;1.60;;;;;;;22.69;54.14;99588.06;4493337;31;34238;-57
2022/07/02 02:37:14;;;;;;;2.70;1.30;;;;;;;22.42;55.24;99608.78;4489577;31;34063;-59
2022/07/02 02:39:41;;;;;;;4.53;1.48;;;;;;;22.24;55.13;99617.41;4492049;31;34227;-59
2022/07/02 02:42:09;;;;;;;2.95;1.67;;;;;;;22.40;55.25;99621.75;4494542;31;33574;-60
2022/07/02 02:44:37;;;;;;;2.85;1.30;;;;;;;22.35;54.84;99640.59;4494254;31;33823;-57
2022/07/02 02:47:05;;;;;;;3.00;1.50;;;;;;;22.33;55.06;99648.13;4492143;31;34677;-57
2022/07/02 02:49:32;;;;;;;2.72;1.30;;;;;;;21.64;57.32;99662.12;4497067;31;32467;-58
2022/07/02 02:52:00;;;;;;;3.15;1.30;;;;;;;21.60;57.37;99666.25;4488136;31;33821;-60
2022/07/02 02:54:27;;;;;;;2.78;1.33;;;;;;;21.71;57.61;99675.84;4492698;31;35387;-57
2022/07/02 02:56:55;;;;;;;5.43;1.80;;;;;;;22.25;55.49;99681.81;4490407;31;33856;-60
2022/07/02 02:59:23;;;;;;;6.12;1.27;;;;;;;21.60;57.17;99697.09;4497083;31;34519;-56
2022/07/02 03:01:50;;;;;;;4.15;1.77;;;;;;;21.82;57.06;99694.44;4493631;31;33432;-59
2022/07/02 03:04:18;;;;;;;3.37;1.60;;;;;;;21.29;58.09;99696.34;4488939;31;33990;-59
2022/07/02 03:06:46;;;;;;;3.58;2.12;;;;;;;21.79;57.15;99709.25;4495284;31;34745;-57
2022/07/02 03:09:13;;;;;;;2.87;1.58;;;;;;;21.58;57.25;99715.47;4488983;31;32178;-57
2022/07/02 03:11:41;;;;;;;3.95;1.60;;;;;;;21.13;58.83;99705.50;4487399;31;34922;-58
2022/07/02 03:14:08;;;;;;;4.25;1.67;;;;;;;21.07;58.98;99708.97;4492124;31;35728;-57
2022/07/02 03:16:36;;;;;;;3.75;1.80;;;;;;;21.26;59.21;99732.09;4492724;31;35456;-58
2022/07/02 03:19:04;;;;;;;4.43;1.52;;;;;;;21.14;59.01;99720.81;4488608;31;33383;-57
2022/07/02 03:21:31;;;;;;;3.17;1.85;;;;;;;21.60;57.35;99727.03;4493259;31;35427;-59
2022/07/02 03:23:59;;;;;;;5.62;2.15;;;;;;;21.36;58.07;99727.28;4495898;31;32783;-58
2022/07/02 03:26:26;;;;;;;3.22;1.62;;;;;;;20.74;60.32;99731.00;4491880;31;34348;-58
2022/07/02 03:28:54;;;;;;;4.70;1.90;;;;;;;21.13;59.02;99717.25;4492781;31;33099;-56
2022/07/02 03:31:21;;;;;;;3.80;1.73;;;;;;;20.94;59.55;99718.59;4495540;31;34497;-57
2022/07/02 03:33:49;;;;;;;3.37;1.90;;;;;;;20.99;60.04;99745.22;4493860;31;33911;-58
2022/07/02 03:36:17;;;;;;;4.00;2.10;;;;;;;21.03;59.55;99745.75;4493282;31;34945;-58
2022/07/02 03:38:44;;;;;;;2.05;1.33;;;;;;;20.55;61.17;99750.50;4492491;31;31634;-58
2022/07/02 03:41:12;;;;;;;4.62;1.73;;;;;;;20.73;60.54;99758.34;4494439;31;32523;-58
2022/07/02 03:43:40;;;;;;;4.90;2.00;;;;;;;20.85;60.46;99751.47;4487480;31;34053;-59
2022/07/02 03:46:07;;;;;;;5.85;2.47;;;;;;;20.95;59.77;99754.78;4493648;31;33746;-58
2022/07/02 03:48:35;;;;;;;3.65;2.00;;;;;;;20.85;60.26;99765.91;4493757;31;34657;-58
2022/07/02 03:51:03;;;;;;;3.58;2.30;;;;;;;20.84;60.13;99772.41;4496794;31;33660;-58
2022/07/02 03:53:30;;;;;;;4.68;2.67;;;;;;;20.77;60.25;99776.00;4495707;31;34982;-58
2022/07/02 03:55:58;;;;;;;3.53;1.73;;;;;;;20.88;59.87;99784.59;4492000;31;32743;-58
2022/07/02 03:58:26;;;;;;;3.90;2.12;;;;;;;20.92;59.48;99788.66;4488204;31;33157;-58
2022/07/02 04:01:00;;;;;;;3.17;2.08;;;;;;;20.72;60.85;99795.59;4489713;31;35019;-59
2022/07/02 04:03:28;;;;;;;4.05;2.28;;;;;;;20.94;59.74;99799.34;4495324;31;32643;-58
2022/07/02 04:05:56;;;;;;;3.53;1.90;;;;;;;20.77;60.02;99814.06;4483300;31;34149;-58
2022/07/02 04:08:24;;;;;;;3.30;1.85;;;;;;;20.84;59.95;99796.88;4496986;31;32130;-58
2022/07/02 04:10:51;;;;;;;4.20;2.40;;;;;;;20.95;60.10;99814.66;4495343;31;34040;-59
2022/07/02 04:13:19;;;;;;;5.10;2.05;;;;;;;20.96;59.83;99813.62;4493995;31;34046;-57
2022/07/02 04:15:46;;;;;;;5.78;2.40;;;;;;;20.99;59.69;99815.12;4488463;31;33598;-59
2022/07/02 04:18:14;;;;;;;4.35;2.35;;;;;;;21.08;59.62;99828.50;4483515;31;34322;-59
2022/07/02 04:20:42;;;;;;;2.72;1.70;;;;;;;20.88;60.31;99832.72;4484330;31;33818;-57
2022/07/02 04:23:10;;;;;;;4.10;1.92;;;;;;;21.56;58.45;99828.34;4494836;31;34019;-56
2022/07/02 04:25:38;;;;;;;4.82;2.12;;;;;;;21.51;58.40;99834.34;4493903;31;32637;-59
2022/07/02 04:28:07;;;;;;;4.25;1.95;;;;;;;21.50;57.91;99839.97;4492663;31;32994;-60
2022/07/02 04:30:35;;;;;;;5.05;2.22;;;;;;;21.18;59.41;99825.53;4492681;31;33736;-60
2022/07/02 04:33:03;;;;;;;4.18;2.67;;;;;;;21.22;58.97;99828.75;4489212;31;34069;-58
2022/07/02 04:35:31;;;;;;;4.82;2.42;;;;;;;21.71;57.66;99825.66;4490206;31;34223;-59
2022/07/02 04:37:59;;;;;;;3.78;2.20;;;;;;;21.95;57.07;99830.84;4484418;31;33094;-59
2022/07/02 04:40:27;;;;;;;4.45;2.42;;;;;;;21.58;57.79;99837.19;4490626;31;33786;-62
2022/07/02 04:42:54;;;;;;;6.28;2.47;;;;;;;21.59;57.57;99836.16;4497092;31;34021;-60
2022/07/02 04:45:22;;;;;;;5.70;2.30;;;;;;;21.67;57.70;99837.94;4494939;31;33651;-61
2022/07/02 04:47:49;;;;;;;3.95;2.03;;;;;;;21.56;57.86;99841.94;4491020;31;30622;-62
2022/07/02 04:50:17;;;;;;;5.85;2.42;;;;;;;21.71;57.50;99848.28;4490121;31;34083;-60
2022/07/02 04:52:48;;;;;;;4.65;2.25;;;;;;;21.65;57.82;99854.47;4495017;31;35646;-59
2022/07/02 04:55:16;;;;;;;4.37;2.53;;;;;;;21.64;57.90;99852.78;4494936;31;33561;-62
2022/07/02 04:57:43;;;;;;;4.65;2.55;;;;;;;21.52;58.40;99863.25;4496917;31;34434;-59
2022/07/02 05:00:11;;;;;;;4.80;2.35;;;;;;;21.52;58.66;99871.44;4493926;31;35123;-60
2022/07/02 05:02:39;;;;;;;5.62;2.28;;;;;;;21.91;57.54;99856.78;4496800;31;35612;-58
2022/07/02 05:05:07;;;;;;;4.85;2.70;;;;;;;22.05;57.23;99868.72;4493768;31;33740;-60
2022/07/02 05:07:35;;;;;;;5.45;2.17;;;;;;;21.92;57.34;99869.38;4489086;31;34118;-62
2022/07/02 05:10:03;;;;;;;3.95;2.45;;;;;;;22.68;54.88;99866.53;4490167;31;32783;-61
2022/07/02 05:12:30;;;;;;;4.55;2.45;;;;;;;22.74;54.86;99865.75;4497184;31;35182;-63
2022/07/02 05:14:58;;;;;;;4.57;2.67;;;;;;;22.46;55.29;99871.87;4497105;31;33978;-61
2022/07/02 05:17:25;;;;;;;8.88;2.92;;;;;;;22.57;55.23;99873.31;4488913;31;31817;-60
2022/07/02 05:19:53;;;;;;;4.82;2.60;;;;;;;22.82;55.25;99882.00;4495111;31;34179;-60
2022/07/02 05:22:20;;;;;;;5.15;2.65;;;;;;;22.62;55.37;99898.12;4493214;31;33603;-63
2022/07/02 05:24:48;;;;;;;4.97;2.67;;;;;;;22.41;55.70;99896.16;4494607;31;34215;-62
2022/07/02 05:27:16;;;;;;;4.85;2.58;;;;;;;22.16;55.94;99898.31;4488700;31;32760;-64
2022/07/02 05:29:43;;;;;;;4.30;2.67;;;;;;;22.46;55.67;99903.78;4491769;31;32433;-65
2022/07/02 05:32:16;;;;;;;4.05;2.62;;;;;;;22.47;55.33;99914.50;4496327;31;33745;-63
2022/07/02 05:34:43;;;;;;;4.65;2.70;;;;;;;22.48;55.20;99904.44;4494927;31;33741;-61
2022/07/02 05:37:11;;;;;;;6.75;2.75;;;;;;;23.05;53.97;99913.81;4493962;31;33169;-62
2022/07/02 05:39:39;;;;;;;5.22;2.70;;;;;;;23.03;54.73;99930.41;4491915;31;35019;-62
2022/07/02 05:42:06;;;;;;;4.15;2.47;;;;;;;23.11;53.91;99926.69;4493465;31;34163;-64
2022/07/02 05:44:34;;;;;;;9.50;2.95;;;;;;;22.82;54.81;99935.75;4495465;31;33457;-62
2022/07/02 05:47:01;;;;;;;4.40;2.53;;;;;;;22.85;54.22;99941.66;4493754;31;34292;-62
2022/07/02 05:49:29;;;;;;;4.35;2.25;;;;;;;23.28;53.75;99951.91;4491087;31;32578;-63
2022/07/02 05:51:57;;;;;;;6.07;3.10;;;;;;;23.42;53.42;99964.66;4493453;31;35361;-62
2022/07/02 05:54:25;;;;;;;6.00;2.62;;;;;;;23.25;54.09;99972.25;4493893;31;33774;-63
2022/07/02 05:56:52;;;;;;;5.00;2.50;;;;;;;23.58;52.58;99958.13;4491691;31;32858;-60
2022/07/02 05:59:21;;;;;;;7.85;2.45;;;;;;;23.81;52.14;99956.06;4497368;31;32806;-61
2022/07/02 06:01:49;;;;;;;6.80;2.97;;;;;;;23.49;52.72;99952.75;4492450;31;34019;-62
2022/07/02 06:04:17;;;;;;;4.37;2.40;;;;;;;23.97;51.80;99954.13;4491585;31;33321;-62
2022/07/02 06:09:31;;;;;;;4.45;2.60;;;;;;;23.66;52.14;99947.09;4492551;31;33579;-61
2022/07/02 06:11:59;;;;;;;6.60;2.62;;;;;;;24.01;51.58;99919.88;4495356;31;34990;-63
2022/07/02 06:14:27;;;;;;;4.50;2.35;;;;;;;23.74;52.89;99933.31;4484372;31;34663;-63
2022/07/02 06:16:54;;;;;;;4.55;2.75;;;;;;;24.09;51.30;99942.44;4496719;31;33679;-63
2022/07/02 06:19:22;;;;;;;4.93;2.65;;;;;;;24.05;51.75;99951.25;4487073;31;32530;-62
2022/07/02 06:21:49;;;;;;;4.35;2.67;;;;;;;23.86;52.33;99945.41;4499679;31;33810;-61
2022/07/02 06:24:17;;;;;;;5.07;2.67;;;;;;;23.93;52.07;99957.25;4500382;31;33601;-60
2022/07/02 06:26:45;;;;;;;5.80;2.62;;;;;;;24.34;50.84;99956.53;4501034;31;33288;-61
2022/07/02 06:29:12;;;;;;;5.20;2.70;;;;;;;24.27;51.23;99957.50;4499476;31;33768;-62
2022/07/02 06:31:40;;;;;;;5.00;3.00;;;;;;;24.03;51.23;99958.78;4496938;31;34151;-60
2022/07/02 06:34:08;;;;;;;5.57;2.92;;;;;;;24.25;50.53;99965.94;4500367;31;33770;-65
2022/07/02 06:36:35;;;;;;;5.25;3.22;;;;;;;24.30;50.91;99966.19;4500222;31;33215;-60
2022/07/02 06:39:03;;;;;;;3.67;2.40;;;;;;;24.20;50.56;99965.66;4490994;31;33803;-62
2022/07/02 06:44:17;;;;;;;6.00;2.90;;;;;;;24.59;50.21;99978.84;4485754;31;33799;-60
2022/07/02 06:46:45;;;;;;;4.78;2.58;;;;;;;24.31;50.56;99981.53;4497768;31;33462;-60
2022/07/02 06:49:13;;;;;;;3.67;2.30;;;;;;;24.60;50.02;99982.44;4495188;31;34782;-60
2022/07/02 06:51:40;;;;;;;4.47;2.65;;;;;;;24.52;50.67;99988.88;4500414;31;34216;-63
2022/07/02 06:54:08;;;;;;;5.03;3.08;;;;;;;25.01;49.45;99977.00;4500464;31;34857;-62
2022/07/02 06:56:36;;;;;;;4.82;2.75;;;;;;;25.12;48.53;99980.19;4500306;31;33492;-63
2022/07/02 06:59:04;;;;;;;5.00;2.62;;;;;;;25.08;48.48;99980.59;4495290;31;34406;-62
2022/07/02 07:01:32;;;;;;;5.55;2.60;;;;;;;24.64;49.52;99987.28;4494686;31;33790;-61
2022/07/02 07:04:00;;;;;;;5.85;3.00;;;;;;;24.75;49.25;99983.16;4488867;31;33742;-61
2022/07/02 07:06:35;;;;;;;4.18;2.70;;;;;;;24.43;49.59;99981.91;4480998;31;32923;-61
2022/07/02 07:09:03;;;;;;;7.65;3.53;;;;;;;24.60;49.05;99986.00;4493407;31;33875;-62
2022/07/02 07:11:31;;;;;;;4.90;3.00;;;;;;;24.89;49.20;99983.22;4484239;31;33329;-60
2022/07/02 07:13:58;;;;;;;6.57;2.95;;;;;;;25.11;47.69;99979.34;4489460;31;33908;-63
2022/07/02 07:16:26;;;;;;;4.60;2.65;;;;;;;24.68;48.58;99987.72;4500385;31;34701;-61
2022/07/02 07:19:01;;;;;;;4.72;3.03;;;;;;;24.73;48.68;99987.97;4494644;31;35002;-61
2022/07/02 07:21:29;;;;;;;5.72;2.92;;;;;;;24.91;48.18;99986.59;4484040;31;32505;-62
2022/07/02 07:23:56;;;;;;;6.37;2.95;;;;;;;24.73;48.64;100007.13;4497288;31;33897;-63
2022/07/02 07:26:24;;;;;;;5.53;2.72;;;;;;;24.97;48.68;99991.25;4500075;31;33183;-63
2022/07/02 07:28:52;;;;;;;4.70;2.67;;;;;;;25.26;48.04;100012.09;4499253;31;35340;-61
2022/07/02 07:31:20;;;;;;;5.57;3.17;;;;;;;24.53;48.99;100003.44;4492543;31;128704;-61
2022/07/02 07:33:48;;;;;;;4.95;2.97;;;;;;;25.00;48.60;100005.41;4498728;31;35488;-61
2022/07/02 07:36:17;;;;;;;6.90;2.95;;;;;;;24.93;48.39;100017.38;4496795;31;33253;-64
2022/07/02 07:38:46;;;;;;;4.62;3.12;;;;;;;24.86;48.76;100020.06;4500236;31;33613;-60
2022/07/02 07:41:14;;;;;;;4.80;2.97;;;;;;;25.44;47.48;100008.81;4492949;31;33987;-64
2022/07/02 07:43:42;;;;;;;4.53;2.70;;;;;;;25.75;47.22;100006.37;4502619;31;35449;-62
2022/07/02 07:46:10;;;;;;;4.90;2.70;;;;;;;25.58;47.72;100010.53;4499906;31;34548;-63
2022/07/02 07:48:37;;;;;;;3.95;2.60;;;;;;;25.61;47.22;99999.16;4489335;31;33300;-64
2022/07/02 07:51:13;;;;;;;5.68;3.00;;;;;;;25.49;47.06;100009.00;4492845;31;35306;-61
2022/07/02 07:53:43;;;;;;;6.70;3.05;;;;;;;25.63;46.56;100012.66;4500749;31;35219;-61
2022/07/02 07:56:14;;;;;;;6.15;2.78;;;;;;;25.81;47.02;100018.44;4495948;31;34232;-61
2022/07/02 07:58:42;;;;;;;7.05;3.20;;;;;;;25.50;47.26;100022.53;4492177;31;34024;-60
2022/07/02 08:01:10;;;;;;;6.22;3.03;;;;;;;25.81;45.90;100010.22;4491547;31;32390;-61
2022/07/02 08:03:38;;;;;;;4.95;2.83;;;;;;;25.58;46.86;100018.75;4498584;31;34078;-62
2022/07/02 08:06:05;;;;;;;6.15;3.35;;;;;;;25.60;46.58;100016.66;4498763;31;32036;-66
2022/07/02 08:08:33;;;;;;;6.03;3.00;;;;;;;25.35;46.90;100016.34;4495748;31;34138;-65
2022/07/02 08:11:01;;;;;;;5.50;3.00;;;;;;;25.54;46.66;100021.06;4492887;31;34084;-61
2022/07/02 08:13:29;;;;;;;8.40;3.12;;;;;;;25.71;46.94;100021.53;4494289;31;32843;-61
2022/07/02 08:15:56;;;;;;;5.68;2.97;;;;;;;25.45;47.12;100021.44;4498573;31;33909;-61
2022/07/02 08:18:24;;;;;;;5.55;3.22;;;;;;;25.43;47.38;100018.09;4497172;31;34967;-63
2022/07/02 08:20:52;;;;;;;7.87;3.10;;;;;;;25.78;46.24;100007.88;4497749;31;33386;-65
2022/07/02 08:23:19;;;;;;;5.35;3.42;;;;;;;26.05;46.29;100016.16;4498621;31;34645;-64
2022/07/02 08:25:47;;;;;;;5.60;3.37;;;;;;;26.35;45.63;100002.87;4497588;31;34370;-62
2022/07/02 08:28:15;;;;;;;5.95;3.58;;;;;;;25.99;45.75;100009.59;4497567;31;33846;-62
2022/07/02 08:30:43;;;;;;;5.47;2.80;;;;;;;26.43;45.11;99998.03;4494715;31;34810;-64
2022/07/02 08:33:12;;;;;;;9.05;3.62;;;;;;;26.28;45.05;99997.38;4497796;31;34930;-61
2022/07/02 08:35:40;;;;;;;4.93;3.08;;;;;;;26.20;45.60;100009.44;4498526;31;33418;-61
2022/07/02 08:38:07;;;;;;;5.53;3.33;;;;;;;26.39;45.21;100013.22;4496103;31;32601;-61
2022/07/02 08:40:35;;;;;;;5.32;3.20;;;;;;;26.71;44.24;100014.28;4492439;31;32841;-61
2022/07/02 08:43:03;;;;;;;5.78;3.20;;;;;;;26.68;44.37;100006.47;4498700;31;33790;-61
2022/07/02 08:45:32;;;;;;;4.72;3.08;;;;;;;26.82;43.47;100018.28;4486891;31;35002;-61
2022/07/02 08:48:01;;;;;;;6.03;3.12;;;;;;;27.27;43.45;100012.91;4492047;31;34659;-61
2022/07/02 08:50:30;;;;;;;5.75;3.22;;;;;;;27.50;42.43;100009.63;4485193;31;34718;-59
2022/07/02 08:52:57;;;;;;;6.12;3.03;;;;;;;27.02;43.24;100017.38;4486047;31;33556;-58
2022/07/02 08:55:26;;;;;;;5.87;3.40;;;;;;;26.88;43.73;100006.44;4486991;31;32240;-60
2022/07/02 08:57:54;;;;;;;7.20;3.75;;;;;;;26.84;43.84;100009.84;4481776;32;33535;-60
2022/07/02 09:00:22;;;;;;;6.50;3.28;;;;;;;27.10;43.02;100014.41;4481557;32;34260;-59
2022/07/02 09:02:58;;;;;;;7.47;3.42;;;;;;;26.73;43.18;100014.06;4493347;31;32759;-61
2022/07/02 09:05:28;;;;;;;8.25;3.30;;;;;;;27.12;42.62;100017.78;4492601;31;33179;-57
2022/07/02 09:07:56;;;;;;;7.45;3.35;;;;;;;27.23;42.74;100010.81;4492966;31;33651;-59
2022/07/02 09:10:25;;;;;;;4.90;3.00;;;;;;;26.75;43.57;100011.97;4495859;31;33821;-58
2022/07/02 09:12:53;;;;;;;5.10;2.97;;;;;;;26.88;43.74;100008.34;4495656;31;34002;-61
2022/07/02 09:15:21;;;;;;;8.70;3.80;;;;;;;26.97;43.15;100009.81;4488599;31;33036;-59
2022/07/02 09:17:49;;;;;;;5.00;3.08;;;;;;;27.22;42.91;100007.19;4496777;31;33903;-58
2022/07/02 09:20:18;;;;;;;5.18;2.97;;;;;;;27.45;42.43;100003.09;4496180;31;33946;-58
2022/07/02 09:22:47;;;;;;;6.32;3.45;;;;;;;27.05;43.29;100000.47;4482889;31;33170;-61
2022/07/02 09:25:18;;;;;;;5.75;3.25;;;;;;;27.33;42.95;99994.72;4489590;31;34142;-59
2022/07/02 09:27:47;;;;;;;5.30;3.05;;;;;;;27.59;42.08;99989.06;4494231;31;32263;-58
2022/07/02 09:30:18;;;;;;;5.25;2.87;;;;;;;27.86;41.56;99988.94;4489596;31;33995;-59
2022/07/02 09:33:28;;;;;;;5.72;3.00;;;;;;;28.04;41.84;99990.94;4498417;31;33877;-59
2022/07/02 09:35:38;;;;;;;6.07;3.17;;;;;;;27.94;41.69;99991.44;4494671;31;33446;-61
2022/07/02 09:38:11;;;;;;;7.50;3.53;;;;;;;28.23;40.89;99986.34;4496428;31;35038;-61
2022/07/02 09:40:54;;;;;;;6.47;3.05;;;;;;;28.29;40.53;99986.28;4498564;31;32935;-60
2022/07/02 09:43:29;;;;;;;6.15;3.40;;;;;;;28.23;41.05;99998.19;4498603;31;34719;-60
2022/07/02 09:45:58;;;;;;;6.18;3.85;;;;;;;28.64;40.51;99999.56;4493452;31;34485;-61
2022/07/02 09:48:26;;;;;;;4.70;2.65;;;;;;;28.33;39.91;99995.78;4499738;31;32543;-59
2022/07/02 09:50:54;;;;;;;6.40;3.08;;;;;;;28.65;39.81;100000.41;4500416;31;34006;-60
2022/07/02 09:53:21;;;;;;;6.50;3.17;;;;;;;28.41;39.94;99993.84;4498619;31;33847;-58
2022/07/02 09:55:50;;;;;;;5.85;3.78;;;;;;;28.53;39.34;99994.78;4497257;31;34138;-59
2022/07/02 09:58:25;;;;;;;6.30;3.25;;;;;;;28.83;39.32;99999.56;4500043;31;35059;-63
2022/07/02 10:00:54;;;;;;;4.25;2.80;;;;;;;28.99;39.05;100002.59;4496867;31;35309;-60
2022/07/02 10:03:22;;;;;;;5.35;3.15;;;;;;;29.70;37.99;99998.34;4500089;31;34891;-59
2022/07/02 10:05:54;;;;;;;4.93;2.90;;;;;;;29.51;37.09;99990.34;4499165;31;32265;-58
2022/07/02 10:08:22;;;;;;;8.93;3.28;;;;;;;29.53;37.49;100002.78;4499556;31;33675;-58
2022/07/02 10:10:50;;;;;;;5.15;3.15;;;;;;;29.69;37.48;99998.56;4500631;31;32864;-59
2022/07/02 10:13:18;;;;;;;4.55;2.80;;;;;;;29.54;37.43;99990.72;4499681;31;31748;-59
2022/07/02 10:16:04;;;;;;;6.07;3.45;;;;;;;29.38;37.73;99992.19;4498880;31;34356;-59
2022/07/02 10:18:32;;;;;;;9.75;3.40;;;;;;;29.87;37.33;99995.78;4487208;31;32488;-58
2022/07/02 10:21:00;;;;;;;8.35;3.00;;;;;;;29.89;37.38;99996.38;4486243;31;33946;-59
2022/07/02 10:23:28;;;;;;;5.37;3.08;;;;;;;30.06;36.46;99992.94;4499743;31;34291;-59
2022/07/02 10:25:55;;;;;;;5.62;3.30;;;;;;;30.23;36.20;99996.72;4494457;31;32385;-59
2022/07/02 10:28:26;;;;;;;7.22;2.55;;;;;;;30.49;35.64;99995.44;4498783;31;34882;-61
2022/07/02 10:30:54;;;;;;;6.28;3.22;;;;;;;30.59;35.74;99990.16;4499192;31;32708;-59
2022/07/02 10:33:39;;;;;;;9.40;3.10;;;;;;;30.45;34.74;99988.72;4483678;31;33949;-59
2022/07/02 10:36:08;;;;;;;;;;;;;;;29.86;36.34;99983.06;4483364;31;34239;-59
2022/07/02 10:38:38;;;;;;;7.00;2.80;;;;;;;30.31;36.22;99985.34;4481759;31;34578;-59
2022/07/02 10:41:07;;;;;;;7.87;3.22;;;;;;;30.29;35.35;99992.19;4489681;31;33648;-60
2022/07/02 10:43:37;;;;;;;5.57;3.08;;;;;;;30.37;35.38;99989.09;4500137;31;33856;-61
2022/07/02 10:46:09;;;;;;;4.45;2.62;;;;;;;30.38;35.79;99988.00;4493348;31;34224;-63
2022/07/02 10:48:47;;;;;;;5.45;2.78;;;;;;;30.16;35.71;99987.69;4495350;31;34747;-59
2022/07/02 10:51:35;;;;;;;4.35;2.60;;;;;;;30.25;35.80;99986.28;4496947;31;33822;-62
2022/07/02 10:54:07;;;;;;;5.10;2.85;;;;;;;30.52;34.98;99983.06;4492141;31;35346;-62
2022/07/02 10:56:46;;;;;;;6.47;2.67;;;;;;;30.73;34.19;99981.62;4497694;31;33050;-59
2022/07/02 10:59:27;;;;;;;5.53;2.65;;;;;;;30.42;34.96;99983.66;4497975;31;35192;-62
2022/07/02 11:02:05;;;;;;;4.25;2.67;;;;;;;30.77;34.57;99980.09;4492133;31;33729;-61
2022/07/02 11:04:36;;;;;;;5.60;2.83;;;;;;;30.45;34.90;99968.53;4494977;31;33424;-59
2022/07/02 11:07:05;;;;;;;4.60;2.62;;;;;;;30.64;34.15;99981.16;4496737;31;33252;-64
2022/07/02 11:09:58;;;;;;;5.62;2.50;;;;;;;30.06;34.82;99971.72;4495558;31;33892;-59
2022/07/02 11:12:46;;;;;;;5.10;2.60;;;;;;;30.68;34.14;99968.53;4499691;31;35251;-61
2022/07/02 11:15:19;;;;;;;5.57;2.47;;;;;;;30.18;35.65;99967.06;4479755;32;33411;-62
2022/07/02 11:17:51;;;;;;;5.63;2.67;;;;;;;30.51;34.09;99973.09;4483800;31;32302;-59
2022/07/02 11:20:25;;;;;;;5.87;2.80;;;;;;;30.49;34.67;99967.81;4491351;31;35097;-61
2022/07/02 11:22:53;;;;;;;6.85;3.10;;;;;;;30.25;35.15;99968.91;4499816;31;34829;-63
2022/07/02 11:25:21;;;;;;;3.92;2.22;;;;;;;30.21;34.76;99967.66;4492505;31;33678;-59
2022/07/02 11:27:59;;;;;;;5.87;2.97;;;;;;;30.52;34.50;99972.84;4491257;31;33164;-60
2022/07/02 11:30:29;;;;;;;4.07;2.50;;;;;;;30.63;34.12;99960.97;4495832;31;33887;-59
2022/07/02 11:32:57;;;;;;;6.10;2.58;;;;;;;30.97;33.30;99974.19;4495858;31;35128;-59
2022/07/02 11:35:25;;;;;;;7.62;3.35;;;;;;;30.66;34.44;99965.19;4489335;31;33624;-59
2022/07/02 11:37:57;;;;;;;4.70;2.37;;;;;;;30.50;34.06;99971.41;4499630;31;31654;-60
2022/07/02 11:40:25;;;;;;;5.87;3.03;;;;;;;31.20;32.74;99959.44;4481387;31;34236;-59
2022/07/02 11:42:54;;;;;;;5.70;2.72;;;;;;;30.70;33.69;99966.38;4495347;31;34030;-59
2022/07/02 11:45:21;;;;;;;4.32;2.53;;;;;;;30.60;33.65;99971.66;4497843;31;34713;-64
2022/07/02 11:47:50;;;;;;;5.53;2.70;;;;;;;30.80;33.49;99961.09;4494507;31;33390;-62